Time;durP1;ratioP1;P1;durP2;ratioP2;P2;SDS_P1;SDS_P2;PMS_P1;PMS_P2;Temp;Humidity;BMP_temperature;BMP_pressure;BME280_temperature;BME280_humidity;BME280_pressure;Samples;Min_cycle;Max_cycle;Signal;HPM_P1;HPM_P2
2024/01/01 00:02:29;;;;;;;1999.90;999.90;;;;;;;8.52;93.88;99719.53;10295017;28;20051;-68
2024/01/01 00:07:31;;;;;;;1999.90;999.90;;;;;;;8.47;92.68;99717.25;10296480;28;20093;-68
2024/01/01 00:12:34;;;;;;;1999.90;999.90;;;;;;;8.46;91.65;99717.34;10296044;28;20043;-69
2024/01/01 00:17:37;;;;;;;1999.90;999.90;;;;;;;8.54;90.88;99710.66;10295863;28;20126;-68
2024/01/01 00:22:41;;;;;;;1999.90;999.90;;;;;;;8.29;94.89;99715.81;10294476;28;20101;-68
2024/01/01 00:27:43;;;;;;;1999.90;999.90;;;;;;;8.41;91.91;99716.78;10295482;28;20054;-69
2024/01/01 00:32:45;;;;;;;1999.90;999.90;;;;;;;8.15;98.65;99729.72;10295453;28;20054;-68
2024/01/01 00:37:48;;;;;;;1999.90;999.90;;;;;;;8.08;100.00;99716.22;10277823;28;20054;-68
2024/01/01 00:42:50;;;;;;;1999.90;999.90;;;;;;;8.34;99.84;99714.56;10295074;28;20078;-68
2024/01/01 00:47:53;;;;;;;1999.90;999.90;;;;;;;8.22;100.00;99727.53;10295286;28;20058;-69
2024/01/01 00:52:56;;;;;;;1999.90;999.90;;;;;;;8.21;99.24;99728.50;10294566;28;20498;-68
2024/01/01 00:57:58;;;;;;;1999.90;999.90;;;;;;;8.12;96.50;99715.13;10294176;28;20101;-69
2024/01/01 01:03:00;;;;;;;1999.90;999.90;;;;;;;7.93;93.00;99718.03;10294383;28;20047;-68
2024/01/01 01:08:03;;;;;;;1999.90;999.90;;;;;;;7.87;94.86;99741.91;10293961;28;20054;-69
2024/01/01 01:13:06;;;;;;;1999.90;999.90;;;;;;;7.84;94.91;99746.47;10294224;28;20051;-69
2024/01/01 01:18:08;;;;;;;1999.90;999.90;;;;;;;7.57;96.51;99739.44;10276976;28;20086;-68
2024/01/01 01:23:11;;;;;;;1999.90;999.90;;;;;;;7.51;98.17;99721.59;10292518;28;20411;-69
2024/01/01 01:28:21;;;;;;;1999.90;999.90;;;;;;;7.39;99.05;99742.22;10293749;28;20085;-69
2024/01/01 01:33:24;;;;;;;1999.90;999.90;;;;;;;7.23;98.94;99737.13;10292642;28;20057;-69
2024/01/01 01:38:26;;;;;;;1999.90;999.90;;;;;;;7.17;99.88;99740.09;10292414;28;20130;-69
2024/01/01 01:43:29;;;;;;;1999.90;999.90;;;;;;;7.25;100.00;99753.50;10292428;28;20059;-68
2024/01/01 01:48:31;;;;;;;1999.90;999.90;;;;;;;7.29;100.00;99756.75;10293288;28;20462;-68
2024/01/01 01:53:34;;;;;;;1999.90;999.90;;;;;;;7.22;100.00;99760.66;10291864;28;20051;-68
2024/01/01 01:58:37;;;;;;;1999.90;999.90;;;;;;;7.36;100.00;99763.28;10291889;28;20153;-68
2024/01/01 02:03:39;;;;;;;1999.90;999.90;;;;;;;7.28;100.00;99770.72;10292989;28;20073;-68
2024/01/01 02:08:42;;;;;;;1999.90;999.90;;;;;;;7.23;100.00;99746.72;10324978;23;20547;-67
2024/01/01 02:13:44;;;;;;;1999.90;999.90;;;;;;;7.12;100.00;99760.34;10333138;28;20060;-67
2024/01/01 02:18:47;;;;;;;1999.90;999.90;;;;;;;7.22;100.00;99758.06;10337475;28;20061;-68
2024/01/01 02:23:49;;;;;;;1999.90;999.90;;;;;;;7.38;100.00;99745.78;10340679;28;20049;-67
2024/01/01 02:28:52;;;;;;;1999.90;999.90;;;;;;;7.20;100.00;99755.53;10339275;28;20057;-67
2024/01/01 02:33:54;;;;;;;1999.90;999.90;;;;;;;7.28;100.00;99759.44;10340080;28;20378;-67
2024/01/01 02:38:57;;;;;;;1999.90;999.90;;;;;;;7.36;100.00;99762.41;10340010;28;20065;-67
2024/01/01 02:43:59;;;;;;;1999.90;999.90;;;;;;;7.30;100.00;99758.44;10339916;28;20049;-68
2024/01/01 02:49:02;;;;;;;1999.90;999.90;;;;;;;7.15;100.00;99788.00;10338566;28;20062;-67
2024/01/01 02:54:04;;;;;;;1999.90;999.90;;;;;;;7.24;100.00;99784.81;10339346;28;20046;-67
2024/01/01 02:59:07;;;;;;;1999.90;999.90;;;;;;;7.07;100.00;99776.25;10339192;28;20210;-67
2024/01/01 03:04:09;;;;;;;1999.90;999.90;;;;;;;7.20;100.00;99772.94;10338982;28;20081;-67
2024/01/01 03:09:12;;;;;;;1999.90;999.90;;;;;;;7.21;100.00;99774.59;10338738;28;20100;-67
2024/01/01 03:14:14;;;;;;;1999.90;999.90;;;;;;;7.19;100.00;99772.06;10338553;28;20050;-67
2024/01/01 03:19:17;;;;;;;1999.90;999.90;;;;;;;7.23;100.00;99762.34;10337370;28;20518;-67
2024/01/01 03:24:19;;;;;;;1999.90;999.90;;;;;;;7.24;100.00;99772.63;10338295;28;20054;-67
2024/01/01 03:29:21;;;;;;;1999.90;999.90;;;;;;;7.32;100.00;99756.56;10336382;28;20081;-67
2024/01/01 03:34:24;;;;;;;1999.90;999.90;;;;;;;7.02;100.00;99761.84;10338024;28;20050;-67
2024/01/01 03:39:26;;;;;;;1999.90;999.90;;;;;;;7.20;100.00;99776.34;10336522;28;20050;-67
2024/01/01 03:44:28;;;;;;;1999.90;999.90;;;;;;;7.18;100.00;99769.59;10337608;28;20133;-67
2024/01/01 03:49:31;;;;;;;1999.90;999.90;;;;;;;7.41;100.00;99773.38;10337291;28;20108;-67
2024/01/01 03:54:33;;;;;;;1999.90;999.90;;;;;;;7.29;100.00;99774.97;10337024;28;20050;-67
2024/01/01 03:59:36;;;;;;;1999.90;999.90;;;;;;;7.30;100.00;99776.66;10335912;28;20229;-67
2024/01/01 04:04:41;;;;;;;1999.90;999.90;;;;;;;7.49;100.00;99767.72;10336681;28;20052;-67
2024/01/01 04:09:44;;;;;;;1999.90;999.90;;;;;;;7.39;100.00;99772.66;10336328;28;20425;-68
2024/01/01 04:14:46;;;;;;;1999.90;999.90;;;;;;;7.35;100.00;99781.59;10336398;28;20042;-68
2024/01/01 04:19:49;;;;;;;1999.90;999.90;;;;;;;7.34;100.00;99767.72;10336283;28;20104;-67
2024/01/01 04:24:51;;;;;;;1999.90;999.90;;;;;;;7.40;100.00;99777.78;10335755;28;20051;-67
2024/01/01 04:29:54;;;;;;;1999.90;999.90;;;;;;;7.06;100.00;99766.78;10334637;28;20050;-67
2024/01/01 04:34:56;;;;;;;1999.90;999.90;;;;;;;7.22;100.00;99791.91;10335631;28;20125;-67
2024/01/01 04:39:58;;;;;;;1999.90;999.90;;;;;;;7.46;100.00;99776.56;10334518;28;20112;-67
2024/01/01 04:45:01;;;;;;;1999.90;999.90;;;;;;;7.32;100.00;99776.56;10335297;28;20078;-67
2024/01/01 04:50:04;;;;;;;1999.90;999.90;;;;;;;7.44;100.00;99784.44;10334968;28;20647;-67
2024/01/01 04:55:06;;;;;;;1999.90;999.90;;;;;;;7.31;100.00;99788.72;10333619;28;20093;-67
2024/01/01 05:00:09;;;;;;;1999.90;999.90;;;;;;;7.23;100.00;99789.19;10334757;28;20058;-67
2024/01/01 05:05:12;;;;;;;1999.90;999.90;;;;;;;7.16;100.00;99794.84;10333283;28;20053;-68
2024/01/01 05:10:15;;;;;;;1999.90;999.90;;;;;;;7.02;100.00;99800.88;10333186;28;20105;-68
2024/01/01 05:15:17;;;;;;;1999.90;999.90;;;;;;;7.19;100.00;99825.91;10334068;28;20046;-67
2024/01/01 05:20:20;;;;;;;1999.90;999.90;;;;;;;7.16;100.00;99803.53;10334030;28;20509;-68
2024/01/01 05:25:22;;;;;;;1999.90;999.90;;;;;;;7.21;100.00;99814.50;10334122;28;20048;-67
2024/01/01 05:30:27;;;;;;;1999.90;999.90;;;;;;;7.34;100.00;99811.97;10333774;28;20058;-67
2024/01/01 05:35:31;;;;;;;1999.90;999.90;;;;;;;7.34;100.00;99822.41;10333715;28;20050;-67
2024/01/01 05:40:33;;;;;;;1999.90;999.90;;;;;;;7.24;100.00;99814.28;10332657;28;20050;-67
2024/01/01 05:45:36;;;;;;;1999.90;999.90;;;;;;;7.11;100.00;99834.19;10333523;28;20109;-67
2024/01/01 05:50:38;;;;;;;1999.90;999.90;;;;;;;7.19;100.00;99842.38;10317385;28;20054;-68
2024/01/01 05:55:41;;;;;;;1999.90;999.90;;;;;;;7.12;100.00;99835.00;10341679;28;20077;-68
2024/01/01 06:00:43;;;;;;;1999.90;999.90;;;;;;;7.26;100.00;99845.44;10341666;28;20054;-67
2024/01/01 06:05:46;;;;;;;1999.90;999.90;;;;;;;7.29;100.00;99850.47;10341241;28;20050;-68
2024/01/01 06:10:48;;;;;;;1999.90;999.90;;;;;;;7.24;100.00;99848.13;10340956;28;20089;-68
2024/01/01 06:15:51;;;;;;;1999.90;999.90;;;;;;;7.11;100.00;99862.81;10340820;28;20433;-67
2024/01/01 06:20:53;;;;;;;1999.90;999.90;;;;;;;7.09;100.00;99867.25;10339794;28;20065;-67
2024/01/01 06:25:56;;;;;;;1999.90;999.90;;;;;;;7.08;100.00;99881.22;10340380;28;20090;-68
2024/01/01 06:30:58;;;;;;;1999.90;999.90;;;;;;;7.12;100.00;99897.50;10339187;28;20497;-67
2024/01/01 06:36:01;;;;;;;1999.90;999.90;;;;;;;7.24;100.00;99904.59;10340269;28;20050;-67
2024/01/01 06:41:04;;;;;;;1999.90;999.90;;;;;;;7.13;100.00;99917.38;10338859;28;20060;-67
2024/01/01 06:46:06;;;;;;;1999.90;999.90;;;;;;;7.01;100.00;99913.69;10339892;28;20051;-67
2024/01/01 06:51:10;;;;;;;1999.90;999.90;;;;;;;7.07;100.00;99926.38;10339652;28;20076;-68
2024/01/01 06:56:13;;;;;;;1999.90;999.90;;;;;;;7.03;100.00;99933.53;10339634;28;20043;-67
2024/01/01 07:01:16;;;;;;;1999.90;999.90;;;;;;;6.94;100.00;99944.44;10339286;28;20050;-67
2024/01/01 07:06:18;;;;;;;1999.90;999.90;;;;;;;6.81;100.00;99953.88;10338037;28;20077;-67
2024/01/01 07:11:21;;;;;;;1999.90;999.90;;;;;;;6.80;100.00;99954.78;10338618;28;20113;-67
2024/01/01 07:16:23;;;;;;;1999.90;999.90;;;;;;;6.81;100.00;99957.31;10338454;28;20494;-67
2024/01/01 07:21:26;;;;;;;1999.90;999.90;;;;;;;6.72;100.00;99964.78;10338681;28;20054;-67
2024/01/01 07:26:28;;;;;;;1999.90;999.90;;;;;;;6.93;100.00;99981.81;10337123;28;20089;-67
2024/01/01 07:31:31;;;;;;;1999.90;999.90;;;;;;;6.84;100.00;99987.50;10338005;28;20125;-67
2024/01/01 07:36:33;;;;;;;1999.90;999.90;;;;;;;6.84;100.00;99988.38;10338036;28;20061;-67
2024/01/01 07:41:36;;;;;;;1999.90;999.90;;;;;;;6.81;100.00;100006.75;10336483;28;20046;-67
2024/01/01 07:46:39;;;;;;;1999.90;999.90;;;;;;;6.91;100.00;100014.03;10337624;28;20069;-67
2024/01/01 07:51:41;;;;;;;1999.90;999.90;;;;;;;6.88;100.00;100034.09;10337346;28;20057;-67
2024/01/01 07:56:44;;;;;;;1999.90;999.90;;;;;;;6.83;100.00;100049.13;10335812;28;20052;-67
2024/01/01 08:01:46;;;;;;;1999.90;999.90;;;;;;;6.81;100.00;100037.13;10336993;28;20061;-67
2024/01/01 08:06:49;;;;;;;1999.90;999.90;;;;;;;7.03;100.00;100032.44;10336290;28;20049;-67
2024/01/01 08:11:51;;;;;;;1999.90;999.90;;;;;;;7.02;100.00;100053.34;10336413;28;20500;-67
2024/01/01 08:16:53;;;;;;;1999.90;999.90;;;;;;;6.88;100.00;100057.53;10336265;28;20050;-67
2024/01/01 08:21:56;;;;;;;1999.90;999.90;;;;;;;7.02;100.00;100059.38;10336201;28;20058;-67
2024/01/01 08:26:58;;;;;;;1999.90;999.90;;;;;;;7.02;100.00;100077.59;10335871;28;20054;-67
2024/01/01 08:32:00;;;;;;;1999.90;999.90;;;;;;;7.04;100.00;100080.97;10335586;28;20547;-68
2024/01/01 08:37:04;;;;;;;1999.90;999.90;;;;;;;7.10;100.00;100091.97;10335575;28;20053;-68
2024/01/01 08:42:06;;;;;;;1999.90;999.90;;;;;;;7.15;100.00;100082.16;10335362;28;20053;-68
2024/01/01 08:47:09;;;;;;;1999.90;999.90;;;;;;;7.30;100.00;100086.50;10334908;28;20073;-68
2024/01/01 08:52:11;;;;;;;1999.90;999.90;;;;;;;7.29;100.00;100110.03;10334795;28;20075;-69
2024/01/01 08:57:14;;;;;;;1999.90;999.90;;;;;;;7.46;100.00;100115.13;10335061;28;20056;-68
2024/01/01 09:02:16;;;;;;;1999.90;999.90;;;;;;;7.54;100.00;100118.16;10334705;28;20050;-68
2024/01/01 09:07:20;;;;;;;1999.90;999.90;;;;;;;7.37;100.00;100118.25;10334130;28;20541;-68
2024/01/01 09:12:23;;;;;;;1999.90;999.90;;;;;;;7.18;100.00;100147.06;10334485;28;20077;-68
2024/01/01 09:17:25;;;;;;;1999.90;999.90;;;;;;;6.96;100.00;100152.56;10334167;28;20057;-68
2024/01/01 09:22:27;;;;;;;1999.90;999.90;;;;;;;7.05;100.00;100159.91;10334283;28;20078;-68
2024/01/01 09:27:30;;;;;;;1999.90;999.90;;;;;;;7.07;100.00;100168.44;10316407;28;20130;-68
2024/01/01 09:32:32;;;;;;;1999.90;999.90;;;;;;;7.27;100.00;100172.59;10332612;28;20058;-68
2024/01/01 09:37:36;;;;;;;1999.90;999.90;;;;;;;7.33;100.00;100190.50;10333865;28;20061;-68
2024/01/01 09:42:49;;;;;;;1999.90;999.90;;;;;;;7.07;100.00;100203.13;10333786;28;20113;-68
2024/01/01 09:47:51;;;;;;;1999.90;999.90;;;;;;;7.03;100.00;100191.22;10332629;28;20057;-68
2024/01/01 09:53:00;;;;;;;1999.90;999.90;;;;;;;7.25;100.00;100206.53;10331056;28;21472;-67
2024/01/01 09:58:04;;;;;;;1999.90;999.90;;;;;;;7.27;100.00;100213.44;10309817;28;20050;-67
2024/01/01 10:03:10;;;;;;;1999.90;999.90;;;;;;;7.36;100.00;100221.59;10322993;28;20129;-67
2024/01/01 10:08:15;;;;;;;1999.90;999.90;;;;;;;7.40;100.00;100230.94;10287656;28;20077;-68
2024/01/01 10:13:17;;;;;;;1999.90;999.90;;;;;;;7.07;100.00;100243.94;10279110;28;20105;-67
2024/01/01 10:18:20;;;;;;;1999.90;999.90;;;;;;;7.03;100.00;100247.63;10324741;28;20043;-67
2024/01/01 10:23:26;;;;;;;1999.90;999.90;;;;;;;7.11;100.00;100255.91;10290002;28;20085;-67
2024/01/01 10:28:31;;;;;;;1999.90;999.90;;;;;;;7.39;100.00;100257.88;10315084;28;20058;-67
2024/01/01 10:33:34;;;;;;;1999.90;999.90;;;;;;;7.34;100.00;100275.50;10327830;28;20409;-68
2024/01/01 10:38:39;;;;;;;1999.90;999.90;;;;;;;7.42;100.00;100262.94;10322555;28;20058;-68
2024/01/01 10:43:43;;;;;;;1999.90;999.90;;;;;;;7.41;100.00;100263.88;10318079;28;20050;-68
2024/01/01 10:48:46;;;;;;;1999.90;999.90;;;;;;;7.71;100.00;100262.31;10315777;28;20050;-68
2024/01/01 10:54:24;;;;;;;1999.90;999.90;;;;;;;7.79;100.00;100267.94;10325775;28;20050;-68
2024/01/01 10:59:35;;;;;;;1999.90;999.90;;;;;;;7.74;100.00;100268.19;10298438;28;20050;-68
2024/01/01 11:04:37;;;;;;;1999.90;999.90;;;;;;;7.87;100.00;100260.56;10297000;28;20057;-68
2024/01/01 11:09:40;;;;;;;1999.90;999.90;;;;;;;7.61;100.00;100256.75;10330502;28;20071;-68
2024/01/01 11:14:45;;;;;;;1999.90;999.90;;;;;;;7.40;100.00;100266.56;10334284;28;20081;-68
2024/01/01 11:19:47;;;;;;;1999.90;999.90;;;;;;;7.21;100.00;100285.75;10336424;28;20138;-68
2024/01/01 11:24:51;;;;;;;1999.90;999.90;;;;;;;7.30;100.00;100294.84;10336998;28;20104;-68
2024/01/01 11:29:54;;;;;;;1999.90;999.90;;;;;;;7.29;100.00;100302.72;10338423;28;20065;-68
2024/01/01 11:35:05;;;;;;;1999.90;999.90;;;;;;;7.23;100.00;100309.09;10336848;28;20121;-68
2024/01/01 11:40:09;;;;;;;1999.90;999.90;;;;;;;7.16;100.00;100292.09;10337779;28;20133;-68
2024/01/01 11:45:14;;;;;;;1999.90;999.90;;;;;;;7.21;100.00;100284.88;10337437;28;20506;-68
2024/01/01 11:50:16;;;;;;;1999.90;999.90;;;;;;;7.32;100.00;100292.16;10337445;28;20060;-68
2024/01/01 11:55:25;;;;;;;1999.90;999.90;;;;;;;7.11;100.00;100294.09;10337314;28;20081;-68
2024/01/01 12:00:28;;;;;;;1999.90;999.90;;;;;;;7.37;100.00;100301.41;10336988;28;20056;-68
2024/01/01 12:05:31;;;;;;;1999.90;999.90;;;;;;;7.49;100.00;100310.34;10335531;28;20101;-68
2024/01/01 12:10:34;;;;;;;1999.90;999.90;;;;;;;7.46;100.00;100314.88;10335074;28;20137;-68
2024/01/01 12:15:36;;;;;;;1999.90;999.90;;;;;;;8.06;100.00;100311.69;10336348;28;20109;-68
2024/01/01 12:20:38;;;;;;;1999.90;999.90;;;;;;;8.46;100.00;100281.66;10336069;28;20054;-68
2024/01/01 12:25:41;;;;;;;1999.90;999.90;;;;;;;8.64;100.00;100287.59;10335845;28;20133;-68
2024/01/01 12:30:43;;;;;;;1999.90;999.90;;;;;;;8.39;100.00;100269.84;10334516;28;20532;-68
2024/01/01 12:35:46;;;;;;;1999.90;999.90;;;;;;;8.56;100.00;100284.59;10335456;28;20050;-68
2024/01/01 12:40:48;;;;;;;1999.90;999.90;;;;;;;8.16;100.00;100303.25;10335491;28;20050;-68
2024/01/01 12:45:50;;;;;;;1999.90;999.90;;;;;;;7.99;100.00;100304.19;10335030;28;20050;-68
2024/01/01 12:50:53;;;;;;;1999.90;999.90;;;;;;;7.71;100.00;100325.69;10335199;28;20133;-68
2024/01/01 12:55:55;;;;;;;1999.90;999.90;;;;;;;7.69;100.00;100318.88;10334734;28;20125;-68
2024/01/01 13:00:58;;;;;;;1999.90;999.90;;;;;;;6.91;100.00;100337.59;10333935;28;20085;-68
2024/01/01 13:06:00;;;;;;;1999.90;999.90;;;;;;;6.99;100.00;100317.25;10334592;28;20043;-68
2024/01/01 13:11:08;;;;;;;1999.90;999.90;;;;;;;7.27;100.00;100320.19;10334212;28;20137;-68
2024/01/01 13:16:10;;;;;;;1999.90;999.90;;;;;;;7.32;100.00;100323.41;10333282;28;20043;-68
2024/01/01 13:21:12;;;;;;;1999.90;999.90;;;;;;;7.36;100.00;100322.31;10334065;28;20054;-68
2024/01/01 13:26:16;;;;;;;1999.90;999.90;;;;;;;7.53;100.00;100330.13;10334069;28;20050;-68
2024/01/01 13:31:18;;;;;;;1999.90;999.90;;;;;;;7.60;100.00;100326.25;10333956;28;20058;-68
2024/01/01 13:36:21;;;;;;;1999.90;999.90;;;;;;;7.58;100.00;100332.47;10333681;28;20050;-68
2024/01/01 13:41:23;;;;;;;1999.90;999.90;;;;;;;7.77;100.00;100332.34;10333583;28;20050;-68
2024/01/01 13:46:25;;;;;;;1999.90;999.90;;;;;;;7.73;100.00;100334.28;10333456;28;20061;-68
2024/01/01 13:51:28;;;;;;;1999.90;999.90;;;;;;;7.82;100.00;100341.59;10333588;28;20055;-68
2024/01/01 13:56:30;;;;;;;1999.90;999.90;;;;;;;7.87;100.00;100358.75;10332294;28;20056;-67
2024/01/01 14:01:36;;;;;;;1999.90;999.90;;;;;;;7.90;100.00;100355.97;10332028;28;20057;-68
2024/01/01 14:06:42;;;;;;;1999.90;999.90;;;;;;;7.81;100.00;100365.13;10333087;28;20155;-67
2024/01/01 14:11:48;;;;;;;1999.90;999.90;;;;;;;7.71;100.00;100372.59;10334286;28;20452;-68
2024/01/01 14:16:51;;;;;;;1999.90;999.90;;;;;;;7.65;100.00;100379.88;10339999;28;20087;-68
2024/01/01 14:21:54;;;;;;;1999.90;999.90;;;;;;;7.75;100.00;100379.34;10357999;22;20046;-70
2024/01/01 14:26:56;;;;;;;1999.90;999.90;;;;;;;7.74;100.00;100382.84;10421045;28;20046;-70
2024/01/01 14:32:04;;;;;;;1999.90;999.90;;;;;;;7.81;100.00;100386.81;10420823;28;20057;-70
2024/01/01 14:37:07;;;;;;;1999.90;999.90;;;;;;;7.75;100.00;100392.38;10421741;28;20511;-70
2024/01/01 14:42:09;;;;;;;1999.90;999.90;;;;;;;7.82;100.00;100416.34;10421648;28;20049;-70
2024/01/01 14:47:12;;;;;;;1999.90;999.90;;;;;;;7.91;100.00;100415.84;10421227;28;20389;-70
2024/01/01 14:52:18;;;;;;;1999.90;999.90;;;;;;;7.99;100.00;100418.06;10421312;28;20056;-70
2024/01/01 14:57:20;;;;;;;1999.90;999.90;;;;;;;8.04;100.00;100418.66;10419806;28;20063;-70
2024/01/01 15:02:24;;;;;;;1999.90;999.90;;;;;;;7.77;100.00;100415.75;10421013;28;20045;-69
2024/01/01 15:07:26;;;;;;;1999.90;999.90;;;;;;;7.80;100.00;100426.84;10419428;28;20049;-69
2024/01/01 15:12:29;;;;;;;1999.90;999.90;;;;;;;7.90;100.00;100423.75;10419209;28;20099;-69
2024/01/01 15:17:31;;;;;;;1999.90;999.90;;;;;;;7.86;100.00;100438.72;10420361;28;20136;-70
2024/01/01 15:22:34;;;;;;;1999.90;999.90;;;;;;;7.90;100.00;100442.84;10419742;28;20061;-69
2024/01/01 15:27:36;;;;;;;1999.90;999.90;;;;;;;7.60;100.00;100442.66;10419276;28;20077;-69
2024/01/01 15:32:38;;;;;;;1999.90;999.90;;;;;;;7.76;100.00;100437.50;10419511;28;20134;-69
2024/01/01 15:37:41;;;;;;;1999.90;999.90;;;;;;;7.73;100.00;100456.75;10418223;28;20484;-69
2024/01/01 15:42:43;;;;;;;1999.90;999.90;;;;;;;7.65;100.00;100461.50;10419239;28;20494;-69
2024/01/01 15:47:46;;;;;;;1999.90;999.90;;;;;;;7.49;100.00;100463.19;10417745;28;20125;-69
2024/01/01 15:52:48;;;;;;;1999.90;999.90;;;;;;;7.49;100.00;100471.84;10418936;28;20053;-69
2024/01/01 15:57:51;;;;;;;1999.90;999.90;;;;;;;7.28;100.00;100484.19;10418085;28;20053;-69
2024/01/01 16:02:53;;;;;;;1999.90;999.90;;;;;;;7.37;100.00;100486.31;10400960;28;20050;-69
2024/01/01 16:07:55;;;;;;;1999.90;999.90;;;;;;;7.40;100.00;100491.38;10418061;28;20477;-69
2024/01/01 16:12:58;;;;;;;1999.90;999.90;;;;;;;7.18;100.00;100498.56;10417953;28;20049;-69
2024/01/01 16:18:00;;;;;;;1999.90;999.90;;;;;;;7.03;100.00;100503.56;10417743;28;20045;-69
2024/01/01 16:23:03;;;;;;;1999.90;999.90;;;;;;;7.12;100.00;100504.06;10400198;28;20053;-69
2024/01/01 16:28:06;;;;;;;1999.90;999.90;;;;;;;7.13;100.00;100500.50;10417265;28;20067;-69
2024/01/01 16:33:08;;;;;;;1999.90;999.90;;;;;;;7.03;100.00;100507.94;10415993;28;20057;-69
2024/01/01 16:38:11;;;;;;;1999.90;999.90;;;;;;;7.18;100.00;100507.22;10399009;28;20111;-69
2024/01/01 16:43:14;;;;;;;1999.90;999.90;;;;;;;7.01;100.00;100507.16;10416959;28;20060;-69
2024/01/01 16:48:16;;;;;;;1999.90;999.90;;;;;;;7.13;100.00;100519.59;10416530;28;20248;-69
2024/01/01 16:53:18;;;;;;;1999.90;999.90;;;;;;;7.15;100.00;100520.38;10415896;28;20081;-69
2024/01/01 16:58:21;;;;;;;1999.90;999.90;;;;;;;7.16;100.00;100527.28;10398757;28;20497;-69
2024/01/01 17:03:23;;;;;;;1999.90;999.90;;;;;;;6.93;100.00;100535.31;10416088;28;20507;-69
2024/01/01 17:08:26;;;;;;;1999.90;999.90;;;;;;;6.92;100.00;100534.44;10414529;28;20402;-69
2024/01/01 17:13:28;;;;;;;1999.90;999.90;;;;;;;6.90;100.00;100540.66;10416141;28;20053;-69
2024/01/01 17:18:30;;;;;;;1999.90;999.90;;;;;;;6.63;100.00;100538.41;10414699;28;20120;-69
2024/01/01 17:23:33;;;;;;;1999.90;999.90;;;;;;;6.75;100.00;100531.78;10415209;28;20064;-69
2024/01/01 17:28:36;;;;;;;1999.90;999.90;;;;;;;6.82;100.00;100533.19;10414438;28;20049;-70
2024/01/01 17:33:39;;;;;;;1999.90;999.90;;;;;;;6.82;100.00;100525.38;10415261;28;20536;-69
2024/01/01 17:38:42;;;;;;;1999.90;999.90;;;;;;;6.55;100.00;100517.09;10415422;28;20052;-69
2024/01/01 17:43:45;;;;;;;1999.90;999.90;;;;;;;6.64;100.00;100524.47;10413936;28;20408;-69
2024/01/01 17:48:48;;;;;;;1999.90;999.90;;;;;;;6.61;100.00;100525.47;10419633;28;20137;-69
2024/01/01 17:53:51;;;;;;;1999.90;999.90;;;;;;;6.56;100.00;100535.22;10423511;28;20072;-69
2024/01/01 17:58:54;;;;;;;1999.90;999.90;;;;;;;6.39;100.00;100538.59;10423309;28;20060;-69
2024/01/01 18:03:56;;;;;;;1999.90;999.90;;;;;;;6.35;100.00;100536.19;10423117;28;20054;-69
2024/01/01 18:08:59;;;;;;;1999.90;999.90;;;;;;;6.57;100.00;100530.84;10422882;28;20124;-69
2024/01/01 18:14:01;;;;;;;1999.90;999.90;;;;;;;6.38;100.00;100536.03;10422889;28;20053;-69
2024/01/01 18:19:03;;;;;;;1999.90;999.90;;;;;;;6.40;100.00;100526.41;10423071;28;20053;-69
2024/01/01 18:24:06;;;;;;;1999.90;999.90;;;;;;;6.30;100.00;100523.38;10420774;28;20061;-69
2024/01/01 18:29:09;;;;;;;1999.90;999.90;;;;;;;6.39;100.00;100522.97;10422230;28;20060;-69
2024/01/01 18:34:11;;;;;;;1999.90;999.90;;;;;;;6.32;100.00;100525.00;10422364;28;20053;-69
2024/01/01 18:39:14;;;;;;;1999.90;999.90;;;;;;;5.99;100.00;100527.31;10421872;28;20060;-69
2024/01/01 18:44:16;;;;;;;1999.90;999.90;;;;;;;6.32;100.00;100527.59;10421473;28;20059;-69
2024/01/01 18:49:19;;;;;;;1999.90;999.90;;;;;;;6.24;100.00;100519.28;10421289;28;20057;-69
2024/01/01 18:54:25;;;;;;;1999.90;999.90;;;;;;;6.17;100.00;100517.88;10420391;28;20429;-69
2024/01/01 18:59:27;;;;;;;1999.90;999.90;;;;;;;6.30;100.00;100515.56;10419763;28;20455;-69
2024/01/01 19:04:32;;;;;;;1999.90;999.90;;;;;;;6.29;100.00;100503.50;10420856;28;20052;-69
2024/01/01 19:09:36;;;;;;;1999.90;999.90;;;;;;;6.19;100.00;100510.03;10420528;28;20062;-69
2024/01/01 19:14:42;;;;;;;1999.90;999.90;;;;;;;6.26;100.00;100516.63;10420529;28;20048;-69
2024/01/01 19:19:44;;;;;;;1999.90;999.90;;;;;;;6.00;100.00;100504.75;10420321;28;20056;-69
2024/01/01 19:24:50;;;;;;;1999.90;999.90;;;;;;;6.19;100.00;100502.22;10418461;28;20059;-69
2024/01/01 19:29:52;;;;;;;1999.90;999.90;;;;;;;6.11;100.00;100484.34;10419689;28;20061;-69
2024/01/01 19:34:55;;;;;;;1999.90;999.90;;;;;;;6.20;100.00;100481.31;10419605;28;20180;-69
2024/01/01 19:39:59;;;;;;;1999.90;999.90;;;;;;;6.16;100.00;100478.97;10419765;28;20050;-69
2024/01/01 19:45:02;;;;;;;1999.90;999.90;;;;;;;6.29;100.00;100485.31;10419588;28;20049;-69
2024/01/01 19:50:05;;;;;;;1999.90;999.90;;;;;;;6.20;100.00;100470.94;10419124;28;20128;-69
2024/01/01 19:55:08;;;;;;;1999.90;999.90;;;;;;;6.25;100.00;100468.97;10418866;28;20107;-69
2024/01/01 20:00:12;;;;;;;1999.90;999.90;;;;;;;6.26;100.00;100457.66;10401155;28;20049;-69
2024/01/01 20:05:15;;;;;;;1999.90;999.90;;;;;;;6.02;100.00;100454.41;10418495;28;20124;-69
2024/01/01 20:10:17;;;;;;;1999.90;999.90;;;;;;;6.24;100.00;100449.09;10418437;28;20075;-69
2024/01/01 20:15:20;;;;;;;1999.90;999.90;;;;;;;6.22;100.00;100450.94;10416978;28;20046;-69
2024/01/01 20:20:22;;;;;;;1999.90;999.90;;;;;;;6.44;100.00;100435.19;10417382;28;20049;-69
2024/01/01 20:25:24;;;;;;;1999.90;999.90;;;;;;;6.65;100.00;100433.34;10417570;28;20522;-69
2024/01/01 20:30:27;;;;;;;1999.90;999.90;;;;;;;6.57;100.00;100426.81;10399805;28;20080;-69
2024/01/01 20:35:30;;;;;;;1999.90;999.90;;;;;;;6.51;100.00;100407.97;10417110;28;20045;-69
2024/01/01 20:40:33;;;;;;;1999.90;999.90;;;;;;;6.70;100.00;100409.72;10416033;28;20172;-69
2024/01/01 20:45:35;;;;;;;1999.90;999.90;;;;;;;6.59;100.00;100399.84;10416688;28;20053;-69
2024/01/01 20:50:41;;;;;;;1999.90;999.90;;;;;;;6.49;100.00;100401.19;10383232;28;20088;-69
2024/01/01 20:55:43;;;;;;;1999.90;999.90;;;;;;;6.46;100.00;100383.94;10415358;28;20045;-69
2024/01/01 21:00:46;;;;;;;1999.90;999.90;;;;;;;6.35;100.00;100390.56;10416192;28;20057;-69
2024/01/01 21:05:50;;;;;;;1999.90;999.90;;;;;;;6.64;100.00;100400.47;10415849;28;20046;-69
2024/01/01 21:10:52;;;;;;;1999.90;999.90;;;;;;;6.55;100.00;100393.06;10414716;28;20053;-69
2024/01/01 21:15:55;;;;;;;1999.90;999.90;;;;;;;6.65;100.00;100388.28;10415818;28;20061;-69
2024/01/01 21:21:01;;;;;;;1999.90;999.90;;;;;;;6.76;100.00;100374.75;10415554;28;20084;-69
2024/01/01 21:26:04;;;;;;;1999.90;999.90;;;;;;;6.75;100.00;100388.69;10415732;28;20060;-69
2024/01/01 21:31:07;;;;;;;1999.90;999.90;;;;;;;6.67;100.00;100381.25;10415444;28;20045;-69
2024/01/01 21:36:10;;;;;;;1999.90;999.90;;;;;;;6.47;100.00;100364.84;10415259;28;20108;-69
2024/01/01 21:41:13;;;;;;;1999.90;999.90;;;;;;;6.56;100.00;100355.75;10415109;28;20056;-69
2024/01/01 21:46:16;;;;;;;1999.90;999.90;;;;;;;6.54;100.00;100359.31;10415413;28;20049;-69
2024/01/01 21:51:18;;;;;;;1999.90;999.90;;;;;;;6.79;100.00;100357.25;10415032;28;20049;-69
2024/01/01 21:56:20;;;;;;;1999.90;999.90;;;;;;;6.62;100.00;100341.59;10414618;28;20176;-69
2024/01/01 22:01:26;;;;;;;1999.90;999.90;;;;;;;6.45;100.00;100340.63;10382221;28;20431;-69